sensor_id;sensor_type;location;lat;lon;timestamp;P1;durP1;ratioP1;P2;durP2;ratioP2
5684;SDS011;2865;53.114;9.130;2022-11-15T00:00:43;16.07;;;12.70;;
5684;SDS011;2865;53.114;9.130;2022-11-15T00:03:09;24.67;;;14.33;;
5684;SDS011;2865;53.114;9.130;2022-11-15T00:05:34;18.93;;;13.73;;
5684;SDS011;2865;53.114;9.130;2022-11-15T00:07:59;22.27;;;14.30;;
5684;SDS011;2865;53.114;9.130;2022-11-15T00:10:25;18.07;;;12.90;;
5684;SDS011;2865;53.114;9.130;2022-11-15T00:12:50;19.93;;;13.90;;
5684;SDS011;2865;53.114;9.130;2022-11-15T00:15:15;16.70;;;13.37;;
5684;SDS011;2865;53.114;9.130;2022-11-15T00:17:41;27.33;;;14.93;;
5684;SDS011;2865;53.114;9.130;2022-11-15T00:20:06;22.87;;;15.00;;
5684;SDS011;2865;53.114;9.130;2022-11-15T00:22:32;20.40;;;14.20;;
5684;SDS011;2865;53.114;9.130;2022-11-15T00:24:58;21.40;;;13.53;;
5684;SDS011;2865;53.114;9.130;2022-11-15T00:27:23;21.90;;;13.87;;
5684;SDS011;2865;53.114;9.130;2022-11-15T00:29:48;22.37;;;14.73;;
5684;SDS011;2865;53.114;9.130;2022-11-15T00:32:13;16.87;;;13.03;;
5684;SDS011;2865;53.114;9.130;2022-11-15T00:34:40;21.37;;;14.10;;
5684;SDS011;2865;53.114;9.130;2022-11-15T00:37:06;17.27;;;12.53;;
5684;SDS011;2865;53.114;9.130;2022-11-15T00:39:31;18.03;;;13.13;;
5684;SDS011;2865;53.114;9.130;2022-11-15T00:41:56;18.87;;;13.03;;
5684;SDS011;2865;53.114;9.130;2022-11-15T00:44:21;18.63;;;13.10;;
5684;SDS011;2865;53.114;9.130;2022-11-15T00:46:47;20.53;;;14.07;;
5684;SDS011;2865;53.114;9.130;2022-11-15T00:49:12;19.30;;;12.90;;
5684;SDS011;2865;53.114;9.130;2022-11-15T00:51:37;19.63;;;14.30;;
5684;SDS011;2865;53.114;9.130;2022-11-15T00:54:03;15.73;;;12.30;;
5684;SDS011;2865;53.114;9.130;2022-11-15T00:56:28;18.67;;;13.73;;
5684;SDS011;2865;53.114;9.130;2022-11-15T00:58:53;17.30;;;13.30;;
5684;SDS011;2865;53.114;9.130;2022-11-15T01:01:19;17.37;;;12.50;;
5684;SDS011;2865;53.114;9.130;2022-11-15T01:03:44;18.40;;;13.77;;
5684;SDS011;2865;53.114;9.130;2022-11-15T01:06:09;17.70;;;11.77;;
5684;SDS011;2865;53.114;9.130;2022-11-15T01:08:35;15.87;;;11.90;;
5684;SDS011;2865;53.114;9.130;2022-11-15T01:11:02;18.77;;;13.70;;
5684;SDS011;2865;53.114;9.130;2022-11-15T01:13:29;16.37;;;11.90;;
5684;SDS011;2865;53.114;9.130;2022-11-15T01:15:52;17.83;;;13.07;;
5684;SDS011;2865;53.114;9.130;2022-11-15T01:18:17;16.63;;;11.63;;
5684;SDS011;2865;53.114;9.130;2022-11-15T01:20:43;17.63;;;12.30;;
5684;SDS011;2865;53.114;9.130;2022-11-15T01:23:08;15.70;;;12.13;;
5684;SDS011;2865;53.114;9.130;2022-11-15T01:25:34;20.87;;;13.53;;
5684;SDS011;2865;53.114;9.130;2022-11-15T01:27:59;15.57;;;12.67;;
5684;SDS011;2865;53.114;9.130;2022-11-15T01:30:24;14.13;;;11.73;;
5684;SDS011;2865;53.114;9.130;2022-11-15T01:32:49;18.20;;;12.43;;
5684;SDS011;2865;53.114;9.130;2022-11-15T01:35:15;18.03;;;12.20;;
5684;SDS011;2865;53.114;9.130;2022-11-15T01:37:40;16.40;;;12.70;;
5684;SDS011;2865;53.114;9.130;2022-11-15T01:40:06;16.90;;;12.00;;
5684;SDS011;2865;53.114;9.130;2022-11-15T01:42:31;16.40;;;11.70;;
5684;SDS011;2865;53.114;9.130;2022-11-15T01:44:56;19.60;;;12.83;;
5684;SDS011;2865;53.114;9.130;2022-11-15T01:47:24;16.17;;;12.60;;
5684;SDS011;2865;53.114;9.130;2022-11-15T01:52:21;15.70;;;12.33;;
5684;SDS011;2865;53.114;9.130;2022-11-15T01:54:46;21.60;;;13.00;;
5684;SDS011;2865;53.114;9.130;2022-11-15T01:57:11;15.27;;;12.27;;
5684;SDS011;2865;53.114;9.130;2022-11-15T01:59:37;21.33;;;13.50;;
5684;SDS011;2865;53.114;9.130;2022-11-15T02:02:02;19.53;;;13.20;;
5684;SDS011;2865;53.114;9.130;2022-11-15T02:04:28;14.83;;;11.83;;
5684;SDS011;2865;53.114;9.130;2022-11-15T02:06:53;14.57;;;12.23;;
5684;SDS011;2865;53.114;9.130;2022-11-15T02:09:18;20.13;;;12.23;;
5684;SDS011;2865;53.114;9.130;2022-11-15T02:11:44;16.63;;;12.70;;
5684;SDS011;2865;53.114;9.130;2022-11-15T02:14:09;19.40;;;13.03;;
5684;SDS011;2865;53.114;9.130;2022-11-15T02:16:38;18.00;;;12.80;;
5684;SDS011;2865;53.114;9.130;2022-11-15T02:22:10;16.93;;;12.53;;
5684;SDS011;2865;53.114;9.130;2022-11-15T02:24:36;19.23;;;13.43;;
5684;SDS011;2865;53.114;9.130;2022-11-15T02:27:04;16.23;;;12.23;;
5684;SDS011;2865;53.114;9.130;2022-11-15T02:32:31;15.63;;;12.33;;
5684;SDS011;2865;53.114;9.130;2022-11-15T02:35:00;19.17;;;13.53;;
5684;SDS011;2865;53.114;9.130;2022-11-15T02:37:29;17.27;;;12.40;;
5684;SDS011;2865;53.114;9.130;2022-11-15T02:39:51;15.70;;;12.13;;
5684;SDS011;2865;53.114;9.130;2022-11-15T02:42:19;27.33;;;15.90;;
5684;SDS011;2865;53.114;9.130;2022-11-15T02:44:48;19.67;;;13.97;;
5684;SDS011;2865;53.114;9.130;2022-11-15T02:47:14;16.60;;;12.77;;
5684;SDS011;2865;53.114;9.130;2022-11-15T02:49:39;17.33;;;12.57;;
5684;SDS011;2865;53.114;9.130;2022-11-15T02:52:04;19.63;;;12.70;;
5684;SDS011;2865;53.114;9.130;2022-11-15T02:54:30;18.27;;;12.67;;
5684;SDS011;2865;53.114;9.130;2022-11-15T02:56:56;17.50;;;11.90;;
5684;SDS011;2865;53.114;9.130;2022-11-15T02:59:23;17.53;;;12.83;;
5684;SDS011;2865;53.114;9.130;2022-11-15T03:04:43;15.43;;;12.00;;
5684;SDS011;2865;53.114;9.130;2022-11-15T03:07:11;21.57;;;13.00;;
5684;SDS011;2865;53.114;9.130;2022-11-15T03:09:39;16.47;;;12.40;;
5684;SDS011;2865;53.114;9.130;2022-11-15T03:12:07;21.43;;;11.80;;
5684;SDS011;2865;53.114;9.130;2022-11-15T03:14:34;19.03;;;12.50;;
5684;SDS011;2865;53.114;9.130;2022-11-15T03:17:33;19.33;;;12.17;;
5684;SDS011;2865;53.114;9.130;2022-11-15T03:19:44;14.53;;;12.00;;
5684;SDS011;2865;53.114;9.130;2022-11-15T03:22:10;17.93;;;11.30;;
5684;SDS011;2865;53.114;9.130;2022-11-15T03:24:35;21.07;;;13.43;;
5684;SDS011;2865;53.114;9.130;2022-11-15T03:27:00;16.40;;;11.40;;
5684;SDS011;2865;53.114;9.130;2022-11-15T03:29:27;16.00;;;11.80;;
5684;SDS011;2865;53.114;9.130;2022-11-15T03:31:53;14.57;;;11.40;;
5684;SDS011;2865;53.114;9.130;2022-11-15T03:34:20;18.17;;;11.47;;
5684;SDS011;2865;53.114;9.130;2022-11-15T03:36:45;17.00;;;11.27;;
5684;SDS011;2865;53.114;9.130;2022-11-15T03:39:10;15.77;;;11.30;;
5684;SDS011;2865;53.114;9.130;2022-11-15T03:41:37;15.63;;;11.30;;
5684;SDS011;2865;53.114;9.130;2022-11-15T03:44:04;17.97;;;12.07;;
5684;SDS011;2865;53.114;9.130;2022-11-15T03:46:31;20.23;;;12.43;;
5684;SDS011;2865;53.114;9.130;2022-11-15T03:48:54;17.03;;;11.40;;
5684;SDS011;2865;53.114;9.130;2022-11-15T03:51:18;17.50;;;11.43;;
5684;SDS011;2865;53.114;9.130;2022-11-15T03:53:44;20.30;;;12.40;;
5684;SDS011;2865;53.114;9.130;2022-11-15T03:56:09;16.47;;;12.00;;
5684;SDS011;2865;53.114;9.130;2022-11-15T03:58:34;16.73;;;11.10;;
5684;SDS011;2865;53.114;9.130;2022-11-15T04:00:59;15.03;;;10.90;;
5684;SDS011;2865;53.114;9.130;2022-11-15T04:03:25;16.30;;;11.87;;
5684;SDS011;2865;53.114;9.130;2022-11-15T04:05:50;14.33;;;10.80;;
5684;SDS011;2865;53.114;9.130;2022-11-15T04:08:15;15.10;;;11.67;;
5684;SDS011;2865;53.114;9.130;2022-11-15T04:10:40;14.93;;;11.63;;
5684;SDS011;2865;53.114;9.130;2022-11-15T04:13:06;14.33;;;11.63;;
5684;SDS011;2865;53.114;9.130;2022-11-15T04:15:31;15.73;;;11.40;;
5684;SDS011;2865;53.114;9.130;2022-11-15T04:17:56;17.07;;;11.30;;
5684;SDS011;2865;53.114;9.130;2022-11-15T04:20:22;17.90;;;11.70;;
5684;SDS011;2865;53.114;9.130;2022-11-15T04:22:53;16.47;;;10.60;;
5684;SDS011;2865;53.114;9.130;2022-11-15T04:25:24;18.70;;;12.90;;
5684;SDS011;2865;53.114;9.130;2022-11-15T04:27:49;14.30;;;9.60;;
5684;SDS011;2865;53.114;9.130;2022-11-15T04:30:15;13.67;;;11.63;;
5684;SDS011;2865;53.114;9.130;2022-11-15T04:32:40;17.60;;;11.33;;
5684;SDS011;2865;53.114;9.130;2022-11-15T04:35:06;13.60;;;10.57;;
5684;SDS011;2865;53.114;9.130;2022-11-15T04:37:31;15.60;;;11.50;;
5684;SDS011;2865;53.114;9.130;2022-11-15T04:39:57;17.60;;;10.60;;
5684;SDS011;2865;53.114;9.130;2022-11-15T04:42:22;15.70;;;10.20;;
5684;SDS011;2865;53.114;9.130;2022-11-15T04:44:47;17.53;;;11.17;;
5684;SDS011;2865;53.114;9.130;2022-11-15T04:47:13;15.50;;;10.57;;
5684;SDS011;2865;53.114;9.130;2022-11-15T04:49:38;13.00;;;10.67;;
5684;SDS011;2865;53.114;9.130;2022-11-15T04:52:03;15.17;;;10.13;;
5684;SDS011;2865;53.114;9.130;2022-11-15T04:54:29;10.43;;;8.97;;
5684;SDS011;2865;53.114;9.130;2022-11-15T04:56:54;11.77;;;8.83;;
5684;SDS011;2865;53.114;9.130;2022-11-15T04:59:19;13.93;;;10.23;;
5684;SDS011;2865;53.114;9.130;2022-11-15T05:01:44;12.30;;;8.73;;
5684;SDS011;2865;53.114;9.130;2022-11-15T05:04:10;13.40;;;8.83;;
5684;SDS011;2865;53.114;9.130;2022-11-15T05:06:41;17.73;;;10.70;;
5684;SDS011;2865;53.114;9.130;2022-11-15T05:09:06;12.80;;;9.13;;
5684;SDS011;2865;53.114;9.130;2022-11-15T05:11:32;14.20;;;8.93;;
5684;SDS011;2865;53.114;9.130;2022-11-15T05:13:57;11.83;;;9.50;;
5684;SDS011;2865;53.114;9.130;2022-11-15T05:16:22;13.97;;;9.70;;
5684;SDS011;2865;53.114;9.130;2022-11-15T05:18:50;13.23;;;10.17;;
5684;SDS011;2865;53.114;9.130;2022-11-15T05:21:14;13.20;;;9.77;;
5684;SDS011;2865;53.114;9.130;2022-11-15T05:23:38;10.37;;;8.87;;
5684;SDS011;2865;53.114;9.130;2022-11-15T05:26:04;15.23;;;10.60;;
5684;SDS011;2865;53.114;9.130;2022-11-15T05:28:29;16.90;;;10.30;;
5684;SDS011;2865;53.114;9.130;2022-11-15T05:31:00;15.40;;;9.30;;
5684;SDS011;2865;53.114;9.130;2022-11-15T05:33:19;11.90;;;9.37;;
5684;SDS011;2865;53.114;9.130;2022-11-15T05:35:46;10.53;;;8.50;;
5684;SDS011;2865;53.114;9.130;2022-11-15T05:38:11;16.70;;;9.57;;
5684;SDS011;2865;53.114;9.130;2022-11-15T05:40:36;12.40;;;9.07;;
5684;SDS011;2865;53.114;9.130;2022-11-15T05:43:01;12.23;;;8.87;;
5684;SDS011;2865;53.114;9.130;2022-11-15T05:45:26;12.47;;;8.83;;
5684;SDS011;2865;53.114;9.130;2022-11-15T05:47:52;10.07;;;8.53;;
5684;SDS011;2865;53.114;9.130;2022-11-15T05:50:17;13.47;;;8.80;;
5684;SDS011;2865;53.114;9.130;2022-11-15T05:52:42;11.47;;;9.10;;
5684;SDS011;2865;53.114;9.130;2022-11-15T05:55:08;11.40;;;9.17;;
5684;SDS011;2865;53.114;9.130;2022-11-15T05:57:33;12.73;;;10.07;;
5684;SDS011;2865;53.114;9.130;2022-11-15T05:59:58;12.00;;;8.43;;
5684;SDS011;2865;53.114;9.130;2022-11-15T06:02:23;12.37;;;9.90;;
5684;SDS011;2865;53.114;9.130;2022-11-15T06:04:49;13.37;;;9.03;;
5684;SDS011;2865;53.114;9.130;2022-11-15T06:07:14;10.70;;;8.57;;
5684;SDS011;2865;53.114;9.130;2022-11-15T06:09:39;13.13;;;9.13;;
5684;SDS011;2865;53.114;9.130;2022-11-15T06:12:04;10.57;;;8.53;;
5684;SDS011;2865;53.114;9.130;2022-11-15T06:14:30;14.90;;;9.20;;
5684;SDS011;2865;53.114;9.130;2022-11-15T06:16:55;10.37;;;9.37;;
5684;SDS011;2865;53.114;9.130;2022-11-15T06:19:21;12.80;;;8.90;;
5684;SDS011;2865;53.114;9.130;2022-11-15T06:21:46;15.00;;;8.90;;
5684;SDS011;2865;53.114;9.130;2022-11-15T06:24:11;14.77;;;8.10;;
5684;SDS011;2865;53.114;9.130;2022-11-15T06:26:36;10.53;;;9.20;;
5684;SDS011;2865;53.114;9.130;2022-11-15T06:29:02;10.13;;;9.03;;
5684;SDS011;2865;53.114;9.130;2022-11-15T06:31:27;11.07;;;9.00;;
5684;SDS011;2865;53.114;9.130;2022-11-15T06:33:52;13.03;;;9.57;;
5684;SDS011;2865;53.114;9.130;2022-11-15T06:36:17;11.30;;;9.33;;
5684;SDS011;2865;53.114;9.130;2022-11-15T06:38:43;10.57;;;9.20;;
5684;SDS011;2865;53.114;9.130;2022-11-15T06:41:08;13.97;;;8.10;;
5684;SDS011;2865;53.114;9.130;2022-11-15T06:43:33;10.00;;;9.00;;
5684;SDS011;2865;53.114;9.130;2022-11-15T06:45:59;12.33;;;8.67;;
5684;SDS011;2865;53.114;9.130;2022-11-15T06:48:24;11.37;;;9.00;;
5684;SDS011;2865;53.114;9.130;2022-11-15T06:50:51;12.93;;;8.83;;
5684;SDS011;2865;53.114;9.130;2022-11-15T06:53:17;11.80;;;9.77;;
5684;SDS011;2865;53.114;9.130;2022-11-15T06:55:42;10.57;;;9.57;;
5684;SDS011;2865;53.114;9.130;2022-11-15T06:58:07;11.70;;;9.60;;
5684;SDS011;2865;53.114;9.130;2022-11-15T07:00:33;10.20;;;8.43;;
5684;SDS011;2865;53.114;9.130;2022-11-15T07:02:59;9.50;;;8.40;;
5684;SDS011;2865;53.114;9.130;2022-11-15T07:05:24;12.70;;;8.70;;
5684;SDS011;2865;53.114;9.130;2022-11-15T07:07:51;9.63;;;8.70;;
5684;SDS011;2865;53.114;9.130;2022-11-15T07:10:15;11.33;;;9.10;;
5684;SDS011;2865;53.114;9.130;2022-11-15T07:12:41;13.90;;;9.20;;
5684;SDS011;2865;53.114;9.130;2022-11-15T07:15:06;11.67;;;8.87;;
5684;SDS011;2865;53.114;9.130;2022-11-15T07:17:32;10.60;;;8.90;;
5684;SDS011;2865;53.114;9.130;2022-11-15T07:19:57;11.10;;;7.97;;
5684;SDS011;2865;53.114;9.130;2022-11-15T07:22:23;12.10;;;8.60;;
5684;SDS011;2865;53.114;9.130;2022-11-15T07:24:48;10.47;;;8.47;;
5684;SDS011;2865;53.114;9.130;2022-11-15T07:27:13;9.83;;;8.17;;
5684;SDS011;2865;53.114;9.130;2022-11-15T07:29:38;12.83;;;8.73;;
5684;SDS011;2865;53.114;9.130;2022-11-15T07:32:04;12.63;;;9.07;;
5684;SDS011;2865;53.114;9.130;2022-11-15T07:34:29;10.03;;;7.40;;
5684;SDS011;2865;53.114;9.130;2022-11-15T07:36:54;12.80;;;9.03;;
5684;SDS011;2865;53.114;9.130;2022-11-15T07:39:19;11.37;;;9.53;;
5684;SDS011;2865;53.114;9.130;2022-11-15T07:41:45;10.63;;;8.60;;
5684;SDS011;2865;53.114;9.130;2022-11-15T07:44:10;19.23;;;9.43;;
5684;SDS011;2865;53.114;9.130;2022-11-15T07:46:35;14.70;;;8.83;;
5684;SDS011;2865;53.114;9.130;2022-11-15T07:49:01;12.23;;;8.23;;
5684;SDS011;2865;53.114;9.130;2022-11-15T07:51:26;13.13;;;7.93;;
5684;SDS011;2865;53.114;9.130;2022-11-15T07:53:51;8.80;;;7.90;;
5684;SDS011;2865;53.114;9.130;2022-11-15T07:56:16;14.47;;;8.63;;
5684;SDS011;2865;53.114;9.130;2022-11-15T07:58:42;10.10;;;8.60;;
5684;SDS011;2865;53.114;9.130;2022-11-15T08:01:08;10.70;;;8.20;;
5684;SDS011;2865;53.114;9.130;2022-11-15T08:03:32;13.40;;;7.70;;
5684;SDS011;2865;53.114;9.130;2022-11-15T08:05:57;9.87;;;8.50;;
5684;SDS011;2865;53.114;9.130;2022-11-15T08:08:23;14.37;;;8.50;;
5684;SDS011;2865;53.114;9.130;2022-11-15T08:10:48;9.73;;;8.00;;
5684;SDS011;2865;53.114;9.130;2022-11-15T08:13:13;12.30;;;7.83;;
5684;SDS011;2865;53.114;9.130;2022-11-15T08:15:39;10.43;;;7.53;;
5684;SDS011;2865;53.114;9.130;2022-11-15T08:18:05;14.10;;;7.73;;
5684;SDS011;2865;53.114;9.130;2022-11-15T08:20:30;8.57;;;7.27;;
5684;SDS011;2865;53.114;9.130;2022-11-15T08:22:56;10.50;;;7.93;;
5684;SDS011;2865;53.114;9.130;2022-11-15T08:25:21;8.10;;;7.20;;
5684;SDS011;2865;53.114;9.130;2022-11-15T08:27:46;12.90;;;7.97;;
5684;SDS011;2865;53.114;9.130;2022-11-15T08:30:11;13.20;;;7.13;;
5684;SDS011;2865;53.114;9.130;2022-11-15T08:32:37;9.43;;;7.10;;
5684;SDS011;2865;53.114;9.130;2022-11-15T08:35:02;7.90;;;6.67;;
5684;SDS011;2865;53.114;9.130;2022-11-15T08:37:28;9.43;;;6.93;;
5684;SDS011;2865;53.114;9.130;2022-11-15T08:39:53;9.30;;;7.13;;
5684;SDS011;2865;53.114;9.130;2022-11-15T08:42:18;10.53;;;7.23;;
5684;SDS011;2865;53.114;9.130;2022-11-15T08:44:43;11.60;;;7.30;;
5684;SDS011;2865;53.114;9.130;2022-11-15T08:47:11;9.93;;;7.60;;
5684;SDS011;2865;53.114;9.130;2022-11-15T08:49:36;8.73;;;6.70;;
5684;SDS011;2865;53.114;9.130;2022-11-15T08:52:01;10.67;;;7.80;;
5684;SDS011;2865;53.114;9.130;2022-11-15T08:54:26;12.43;;;7.67;;
5684;SDS011;2865;53.114;9.130;2022-11-15T08:56:51;10.33;;;7.37;;
5684;SDS011;2865;53.114;9.130;2022-11-15T08:59:17;11.73;;;6.83;;
5684;SDS011;2865;53.114;9.130;2022-11-15T09:01:42;7.20;;;6.10;;
5684;SDS011;2865;53.114;9.130;2022-11-15T09:04:07;8.67;;;7.00;;
5684;SDS011;2865;53.114;9.130;2022-11-15T09:06:33;9.03;;;6.50;;
5684;SDS011;2865;53.114;9.130;2022-11-15T09:08:58;10.97;;;7.07;;
5684;SDS011;2865;53.114;9.130;2022-11-15T09:11:23;7.67;;;6.13;;
5684;SDS011;2865;53.114;9.130;2022-11-15T09:13:49;7.20;;;6.50;;
5684;SDS011;2865;53.114;9.130;2022-11-15T09:16:14;6.00;;;5.50;;
5684;SDS011;2865;53.114;9.130;2022-11-15T09:18:39;6.13;;;5.60;;
5684;SDS011;2865;53.114;9.130;2022-11-15T09:21:04;8.27;;;6.00;;
5684;SDS011;2865;53.114;9.130;2022-11-15T09:23:29;6.30;;;5.70;;
5684;SDS011;2865;53.114;9.130;2022-11-15T09:25:58;7.37;;;5.97;;
5684;SDS011;2865;53.114;9.130;2022-11-15T09:28:23;10.53;;;6.30;;
5684;SDS011;2865;53.114;9.130;2022-11-15T09:30:48;6.30;;;5.17;;
5684;SDS011;2865;53.114;9.130;2022-11-15T09:33:13;7.43;;;5.90;;
5684;SDS011;2865;53.114;9.130;2022-11-15T09:35:39;6.30;;;5.47;;
5684;SDS011;2865;53.114;9.130;2022-11-15T09:38:04;20.93;;;5.83;;
5684;SDS011;2865;53.114;9.130;2022-11-15T09:40:30;7.70;;;5.60;;
5684;SDS011;2865;53.114;9.130;2022-11-15T09:45:57;5.77;;;5.00;;
5684;SDS011;2865;53.114;9.130;2022-11-15T09:48:35;6.80;;;5.20;;
5684;SDS011;2865;53.114;9.130;2022-11-15T09:51:03;7.23;;;5.20;;
5684;SDS011;2865;53.114;9.130;2022-11-15T09:53:29;6.30;;;5.50;;
5684;SDS011;2865;53.114;9.130;2022-11-15T09:56:02;7.03;;;6.13;;
5684;SDS011;2865;53.114;9.130;2022-11-15T09:58:33;7.73;;;5.00;;
5684;SDS011;2865;53.114;9.130;2022-11-15T10:00:52;5.73;;;5.13;;
5684;SDS011;2865;53.114;9.130;2022-11-15T10:03:22;5.43;;;4.93;;
5684;SDS011;2865;53.114;9.130;2022-11-15T10:05:48;8.00;;;5.80;;
5684;SDS011;2865;53.114;9.130;2022-11-15T10:09:21;6.80;;;5.80;;
5684;SDS011;2865;53.114;9.130;2022-11-15T10:11:00;7.67;;;5.90;;
5684;SDS011;2865;53.114;9.130;2022-11-15T10:13:28;8.87;;;5.47;;
5684;SDS011;2865;53.114;9.130;2022-11-15T10:15:53;5.10;;;4.47;;
5684;SDS011;2865;53.114;9.130;2022-11-15T10:18:24;7.10;;;5.67;;
5684;SDS011;2865;53.114;9.130;2022-11-15T10:20:50;7.70;;;5.60;;
5684;SDS011;2865;53.114;9.130;2022-11-15T10:23:15;5.30;;;4.80;;
5684;SDS011;2865;53.114;9.130;2022-11-15T10:25:39;6.70;;;4.93;;
5684;SDS011;2865;53.114;9.130;2022-11-15T10:28:10;7.97;;;4.70;;
5684;SDS011;2865;53.114;9.130;2022-11-15T10:30:40;5.20;;;4.70;;
5684;SDS011;2865;53.114;9.130;2022-11-15T10:35:38;5.47;;;4.97;;
5684;SDS011;2865;53.114;9.130;2022-11-15T10:38:06;6.53;;;5.07;;
5684;SDS011;2865;53.114;9.130;2022-11-15T10:40:31;8.00;;;4.83;;
5684;SDS011;2865;53.114;9.130;2022-11-15T10:45:33;4.13;;;3.83;;
5684;SDS011;2865;53.114;9.130;2022-11-15T10:50:52;5.53;;;4.57;;
5684;SDS011;2865;53.114;9.130;2022-11-15T10:53:24;9.27;;;5.07;;
5684;SDS011;2865;53.114;9.130;2022-11-15T10:55:51;4.93;;;4.23;;
5684;SDS011;2865;53.114;9.130;2022-11-15T10:58:21;5.70;;;5.00;;
5684;SDS011;2865;53.114;9.130;2022-11-15T11:00:49;7.60;;;4.90;;
5684;SDS011;2865;53.114;9.130;2022-11-15T11:06:13;5.13;;;4.40;;
5684;SDS011;2865;53.114;9.130;2022-11-15T11:08:39;5.33;;;4.83;;
5684;SDS011;2865;53.114;9.130;2022-11-15T11:11:05;7.93;;;4.70;;
5684;SDS011;2865;53.114;9.130;2022-11-15T11:13:33;4.70;;;4.20;;
5684;SDS011;2865;53.114;9.130;2022-11-15T11:21:43;4.67;;;3.90;;
5684;SDS011;2865;53.114;9.130;2022-11-15T11:24:12;5.37;;;4.87;;
5684;SDS011;2865;53.114;9.130;2022-11-15T11:26:57;7.57;;;4.30;;
5684;SDS011;2865;53.114;9.130;2022-11-15T11:29:20;6.50;;;4.97;;
5684;SDS011;2865;53.114;9.130;2022-11-15T11:31:45;4.03;;;3.60;;
5684;SDS011;2865;53.114;9.130;2022-11-15T11:37:14;5.03;;;4.50;;
5684;SDS011;2865;53.114;9.130;2022-11-15T11:39:54;5.90;;;4.10;;
5684;SDS011;2865;53.114;9.130;2022-11-15T11:42:26;5.97;;;4.27;;
5684;SDS011;2865;53.114;9.130;2022-11-15T11:47:58;5.67;;;4.33;;
5684;SDS011;2865;53.114;9.130;2022-11-15T11:50:23;4.90;;;4.40;;
5684;SDS011;2865;53.114;9.130;2022-11-15T11:52:54;4.50;;;4.03;;
5684;SDS011;2865;53.114;9.130;2022-11-15T11:55:34;4.60;;;4.10;;
5684;SDS011;2865;53.114;9.130;2022-11-15T11:58:34;4.43;;;4.03;;
5684;SDS011;2865;53.114;9.130;2022-11-15T12:00:41;5.83;;;4.70;;
5684;SDS011;2865;53.114;9.130;2022-11-15T12:03:09;4.70;;;3.90;;
5684;SDS011;2865;53.114;9.130;2022-11-15T12:05:43;3.70;;;3.40;;
5684;SDS011;2865;53.114;9.130;2022-11-15T12:08:15;3.73;;;3.43;;
5684;SDS011;2865;53.114;9.130;2022-11-15T12:10:34;5.60;;;4.47;;
5684;SDS011;2865;53.114;9.130;2022-11-15T12:13:02;4.33;;;3.93;;
5684;SDS011;2865;53.114;9.130;2022-11-15T12:15:29;19.37;;;3.80;;
5684;SDS011;2865;53.114;9.130;2022-11-15T12:17:54;4.70;;;3.80;;
5684;SDS011;2865;53.114;9.130;2022-11-15T12:20:19;4.10;;;3.70;;
5684;SDS011;2865;53.114;9.130;2022-11-15T12:25:20;3.50;;;3.20;;
5684;SDS011;2865;53.114;9.130;2022-11-15T12:27:46;3.87;;;3.47;;
5684;SDS011;2865;53.114;9.130;2022-11-15T12:30:14;5.27;;;4.30;;
5684;SDS011;2865;53.114;9.130;2022-11-15T12:32:38;3.93;;;3.40;;
5684;SDS011;2865;53.114;9.130;2022-11-15T12:35:04;6.90;;;3.30;;
5684;SDS011;2865;53.114;9.130;2022-11-15T12:40:17;4.70;;;3.57;;
5684;SDS011;2865;53.114;9.130;2022-11-15T12:42:56;3.90;;;3.43;;
5684;SDS011;2865;53.114;9.130;2022-11-15T12:47:53;4.13;;;3.53;;
5684;SDS011;2865;53.114;9.130;2022-11-15T12:50:47;6.33;;;3.10;;
5684;SDS011;2865;53.114;9.130;2022-11-15T12:53:24;4.10;;;3.70;;
5684;SDS011;2865;53.114;9.130;2022-11-15T12:55:29;4.17;;;3.77;;
5684;SDS011;2865;53.114;9.130;2022-11-15T12:57:47;7.90;;;3.60;;
5684;SDS011;2865;53.114;9.130;2022-11-15T13:03:12;5.23;;;4.10;;
5684;SDS011;2865;53.114;9.130;2022-11-15T13:05:51;7.47;;;4.00;;
5684;SDS011;2865;53.114;9.130;2022-11-15T13:08:34;4.27;;;3.87;;
5684;SDS011;2865;53.114;9.130;2022-11-15T13:10:39;4.60;;;3.80;;
5684;SDS011;2865;53.114;9.130;2022-11-15T13:13:07;7.33;;;3.20;;
5684;SDS011;2865;53.114;9.130;2022-11-15T13:20:51;4.60;;;3.57;;
5684;SDS011;2865;53.114;9.130;2022-11-15T13:23:16;3.77;;;3.13;;
5684;SDS011;2865;53.114;9.130;2022-11-15T13:25:50;3.57;;;3.23;;
5684;SDS011;2865;53.114;9.130;2022-11-15T13:28:21;7.13;;;3.30;;
5684;SDS011;2865;53.114;9.130;2022-11-15T13:30:49;4.37;;;3.87;;
5684;SDS011;2865;53.114;9.130;2022-11-15T13:33:19;5.63;;;3.07;;
5684;SDS011;2865;53.114;9.130;2022-11-15T13:35:45;2.70;;;2.50;;
5684;SDS011;2865;53.114;9.130;2022-11-15T13:38:17;4.07;;;3.77;;
5684;SDS011;2865;53.114;9.130;2022-11-15T13:40:36;4.33;;;2.87;;
5684;SDS011;2865;53.114;9.130;2022-11-15T13:45:38;2.77;;;2.53;;
5684;SDS011;2865;53.114;9.130;2022-11-15T13:48:03;11.93;;;4.13;;
5684;SDS011;2865;53.114;9.130;2022-11-15T13:50:30;3.00;;;2.70;;
5684;SDS011;2865;53.114;9.130;2022-11-15T13:52:55;3.10;;;2.40;;
5684;SDS011;2865;53.114;9.130;2022-11-15T13:55:20;3.20;;;2.90;;
5684;SDS011;2865;53.114;9.130;2022-11-15T13:57:46;3.10;;;2.80;;
5684;SDS011;2865;53.114;9.130;2022-11-15T14:02:47;3.83;;;2.80;;
5684;SDS011;2865;53.114;9.130;2022-11-15T14:05:14;4.17;;;2.90;;
5684;SDS011;2865;53.114;9.130;2022-11-15T14:07:39;4.73;;;2.73;;
5684;SDS011;2865;53.114;9.130;2022-11-15T14:12:49;7.50;;;2.77;;
5684;SDS011;2865;53.114;9.130;2022-11-15T14:17:42;5.20;;;2.80;;
5684;SDS011;2865;53.114;9.130;2022-11-15T14:22:50;3.10;;;2.80;;
5684;SDS011;2865;53.114;9.130;2022-11-15T14:25:16;7.00;;;3.30;;
5684;SDS011;2865;53.114;9.130;2022-11-15T14:27:42;6.33;;;3.30;;
5684;SDS011;2865;53.114;9.130;2022-11-15T14:30:07;3.23;;;2.80;;
5684;SDS011;2865;53.114;9.130;2022-11-15T14:32:41;3.07;;;2.80;;
5684;SDS011;2865;53.114;9.130;2022-11-15T14:35:03;3.03;;;2.73;;
5684;SDS011;2865;53.114;9.130;2022-11-15T14:37:29;5.30;;;2.87;;
5684;SDS011;2865;53.114;9.130;2022-11-15T14:39:54;3.80;;;3.20;;
5684;SDS011;2865;53.114;9.130;2022-11-15T14:42:19;3.37;;;2.80;;
5684;SDS011;2865;53.114;9.130;2022-11-15T14:44:44;4.10;;;2.73;;
5684;SDS011;2865;53.114;9.130;2022-11-15T14:47:09;4.77;;;3.17;;
5684;SDS011;2865;53.114;9.130;2022-11-15T14:49:34;2.53;;;2.33;;
5684;SDS011;2865;53.114;9.130;2022-11-15T14:52:00;4.10;;;2.60;;
5684;SDS011;2865;53.114;9.130;2022-11-15T14:54:25;5.37;;;2.90;;
5684;SDS011;2865;53.114;9.130;2022-11-15T14:56:50;3.40;;;3.10;;
5684;SDS011;2865;53.114;9.130;2022-11-15T14:59:16;2.70;;;2.50;;
5684;SDS011;2865;53.114;9.130;2022-11-15T15:01:41;9.43;;;3.10;;
5684;SDS011;2865;53.114;9.130;2022-11-15T15:04:06;3.27;;;2.80;;
5684;SDS011;2865;53.114;9.130;2022-11-15T15:06:31;3.37;;;2.83;;
5684;SDS011;2865;53.114;9.130;2022-11-15T15:08:57;3.60;;;3.10;;
5684;SDS011;2865;53.114;9.130;2022-11-15T15:11:23;3.00;;;2.80;;
5684;SDS011;2865;53.114;9.130;2022-11-15T15:13:47;5.13;;;3.10;;
5684;SDS011;2865;53.114;9.130;2022-11-15T15:16:13;3.73;;;3.30;;
5684;SDS011;2865;53.114;9.130;2022-11-15T15:18:38;3.27;;;2.97;;
5684;SDS011;2865;53.114;9.130;2022-11-15T15:21:20;3.53;;;3.23;;
5684;SDS011;2865;53.114;9.130;2022-11-15T15:23:28;6.50;;;3.10;;
5684;SDS011;2865;53.114;9.130;2022-11-15T15:25:54;4.17;;;3.13;;
5684;SDS011;2865;53.114;9.130;2022-11-15T15:28:19;4.93;;;3.20;;
5684;SDS011;2865;53.114;9.130;2022-11-15T15:30:44;3.50;;;3.20;;
5684;SDS011;2865;53.114;9.130;2022-11-15T15:33:09;4.60;;;3.60;;
5684;SDS011;2865;53.114;9.130;2022-11-15T15:35:35;3.70;;;2.80;;
5684;SDS011;2865;53.114;9.130;2022-11-15T15:38:00;4.53;;;3.33;;
5684;SDS011;2865;53.114;9.130;2022-11-15T15:40:26;3.70;;;2.83;;
5684;SDS011;2865;53.114;9.130;2022-11-15T15:42:51;3.77;;;3.10;;
5684;SDS011;2865;53.114;9.130;2022-11-15T15:45:16;6.00;;;3.43;;
5684;SDS011;2865;53.114;9.130;2022-11-15T15:47:41;4.47;;;3.70;;
5684;SDS011;2865;53.114;9.130;2022-11-15T15:50:14;5.90;;;3.37;;
5684;SDS011;2865;53.114;9.130;2022-11-15T15:52:57;5.27;;;3.57;;
5684;SDS011;2865;53.114;9.130;2022-11-15T15:55:20;4.57;;;3.93;;
5684;SDS011;2865;53.114;9.130;2022-11-15T15:57:45;6.00;;;4.40;;
5684;SDS011;2865;53.114;9.130;2022-11-15T16:00:10;4.07;;;3.63;;
5684;SDS011;2865;53.114;9.130;2022-11-15T16:02:36;5.07;;;3.67;;